createdAt,value
2022-09-17T00:04:04.614Z,19.88
2022-09-17T00:09:26.548Z,19.85
2022-09-17T00:14:48.178Z,19.86
2022-09-17T00:20:10.975Z,19.85
2022-09-17T00:25:32.799Z,19.84
2022-09-17T00:30:54.544Z,19.83
2022-09-17T00:36:17.510Z,19.83
2022-09-17T00:41:39.814Z,19.82
2022-09-17T00:47:01.626Z,19.82
2022-09-17T00:52:31.149Z,19.83
2022-09-17T00:57:56.652Z,19.82
2022-09-17T01:03:18.486Z,19.82
2022-09-17T01:09:01.447Z,19.82
2022-09-17T01:14:50.384Z,19.82
2022-09-17T01:20:37.151Z,19.81
2022-09-17T01:26:27.005Z,19.80
2022-09-17T01:31:51.745Z,19.77
2022-09-17T01:37:30.511Z,19.78
2022-09-17T01:43:04.164Z,19.77
2022-09-17T01:48:47.721Z,19.76
2022-09-17T01:54:31.243Z,19.76
2022-09-17T01:59:59.755Z,19.74
2022-09-17T02:05:42.315Z,19.74
2022-09-17T02:11:10.550Z,19.74
2022-09-17T02:16:35.918Z,19.74
2022-09-17T02:22:08.514Z,19.73
2022-09-17T02:27:35.912Z,19.73
2022-09-17T02:32:57.814Z,19.73
2022-09-17T02:38:26.630Z,19.74
2022-09-17T02:43:52.121Z,19.73
2022-09-17T02:49:28.676Z,19.68
2022-09-17T02:55:10.734Z,19.72
2022-09-17T03:00:33.214Z,19.68
2022-09-17T03:05:55.827Z,19.68
2022-09-17T03:11:17.499Z,19.67
2022-09-17T03:16:39.384Z,19.68
2022-09-17T03:22:01.354Z,19.66
2022-09-17T03:27:23.090Z,19.66
2022-09-17T03:32:44.957Z,19.66
2022-09-17T03:38:06.597Z,19.66
2022-09-17T03:43:31.220Z,19.65
2022-09-17T03:48:52.903Z,19.65
2022-09-17T03:54:14.543Z,19.63
2022-09-17T03:59:36.177Z,19.63
2022-09-17T04:04:57.801Z,19.63
2022-09-17T04:10:19.540Z,19.61
2022-09-17T04:15:41.857Z,19.61
2022-09-17T04:21:03.875Z,19.61
2022-09-17T04:26:25.830Z,19.61
2022-09-17T04:31:47.493Z,19.61
2022-09-17T04:37:09.314Z,19.62
2022-09-17T04:42:31.019Z,19.60
2022-09-17T04:47:52.695Z,19.60
2022-09-17T04:53:14.501Z,19.58
2022-09-17T04:58:36.183Z,19.58
2022-09-17T05:03:57.906Z,19.57
2022-09-17T05:09:20.011Z,19.58
2022-09-17T05:14:41.719Z,19.57
2022-09-17T05:20:03.622Z,19.56
2022-09-17T05:25:25.478Z,19.56
2022-09-17T05:30:47.203Z,19.56
2022-09-17T05:36:08.946Z,19.56
2022-09-17T05:41:30.702Z,19.55
2022-09-17T05:46:53.629Z,19.55
2022-09-17T05:52:16.420Z,19.54
2022-09-17T05:57:38.101Z,19.54
2022-09-17T06:02:59.816Z,19.55
2022-09-17T06:08:22.581Z,19.55
2022-09-17T06:13:44.301Z,19.54
2022-09-17T06:19:05.954Z,19.54
2022-09-17T06:24:28.146Z,19.53
2022-09-17T06:29:49.776Z,19.55
2022-09-17T06:35:11.431Z,19.58
2022-09-17T06:40:33.281Z,19.62
2022-09-17T06:45:57.464Z,19.73
2022-09-17T06:51:19.201Z,19.81
2022-09-17T06:56:40.816Z,19.88
2022-09-17T07:02:02.558Z,19.94
2022-09-17T07:07:24.312Z,19.99
2022-09-17T07:12:49.797Z,19.97
2022-09-17T07:18:12.126Z,19.96
2022-09-17T07:23:35.811Z,19.97
2022-09-17T07:28:57.489Z,20.01
2022-09-17T07:34:19.226Z,20.10
2022-09-17T07:39:41.451Z,20.23
2022-09-17T07:45:03.117Z,20.29
2022-09-17T07:50:24.770Z,20.35
2022-09-17T07:55:57.646Z,21.97
2022-09-17T08:01:21.372Z,22.05
2022-09-17T08:06:43.205Z,21.82
2022-09-17T08:12:05.569Z,21.54
2022-09-17T08:17:27.221Z,21.27
2022-09-17T08:22:50.258Z,21.08
2022-09-17T08:28:12.086Z,20.96
2022-09-17T08:33:35.674Z,20.87
2022-09-17T08:38:58.758Z,20.83
2022-09-17T08:44:27.737Z,20.81
2022-09-17T08:49:54.177Z,20.80
2022-09-17T08:55:25.996Z,20.75
2022-09-17T09:00:56.033Z,20.71
2022-09-17T09:06:19.845Z,20.65
2022-09-17T09:11:43.685Z,20.57
2022-09-17T09:17:10.103Z,20.55
2022-09-17T09:22:45.546Z,20.52
2022-09-17T09:28:25.261Z,20.48
2022-09-17T09:33:48.170Z,20.43
2022-09-17T09:39:40.328Z,20.42
2022-09-17T09:45:17.257Z,20.38
2022-09-17T09:51:04.676Z,20.32
2022-09-17T09:56:44.131Z,20.29
2022-09-17T10:02:05.958Z,20.25
2022-09-17T10:07:28.447Z,20.21
2022-09-17T10:13:05.844Z,20.21
2022-09-17T10:18:27.497Z,20.22
2022-09-17T10:23:50.946Z,20.21
2022-09-17T10:29:16.876Z,20.21
2022-09-17T10:34:38.711Z,20.18
2022-09-17T10:40:00.473Z,20.16
2022-09-17T10:45:31.213Z,20.13
2022-09-17T10:50:55.902Z,20.10
2022-09-17T10:56:26.641Z,20.10
2022-09-17T11:01:58.403Z,20.11
2022-09-17T11:07:49.580Z,20.12
2022-09-17T11:13:16.926Z,20.11
2022-09-17T11:19:07.855Z,20.10
2022-09-17T11:24:46.829Z,20.06
2022-09-17T11:30:24.579Z,20.03
2022-09-17T11:35:53.049Z,19.98
2022-09-17T11:41:26.102Z,19.93
2022-09-17T11:47:12.871Z,19.90
2022-09-17T11:52:42.889Z,19.87
2022-09-17T11:58:15.331Z,19.87
2022-09-17T12:03:43.892Z,19.88
2022-09-17T12:09:20.011Z,19.90
2022-09-17T12:14:44.313Z,19.86
2022-09-17T12:20:22.719Z,19.90
2022-09-17T12:25:55.917Z,19.92
2022-09-17T12:32:03.775Z,19.91
2022-09-17T12:37:45.642Z,19.91
2022-09-17T12:43:28.936Z,19.91
2022-09-17T12:48:59.493Z,19.91
2022-09-17T12:54:32.261Z,19.90
2022-09-17T13:00:07.444Z,19.90
2022-09-17T13:05:55.242Z,19.89
2022-09-17T13:11:31.879Z,19.86
2022-09-17T13:17:22.691Z,19.82
2022-09-17T13:22:50.310Z,19.79
2022-09-17T13:28:12.204Z,19.79
2022-09-17T13:33:52.186Z,19.82
2022-09-17T13:39:35.873Z,19.81
2022-09-17T13:45:08.909Z,19.79
2022-09-17T13:50:37.250Z,19.79
2022-09-17T13:56:02.071Z,19.80
2022-09-17T14:01:57.614Z,19.78
2022-09-17T14:07:22.014Z,19.73
2022-09-17T14:13:01.013Z,19.69
2022-09-17T14:18:43.541Z,19.67
2022-09-17T14:24:21.967Z,19.69
2022-09-17T14:29:54.547Z,19.68
2022-09-17T14:35:20.193Z,19.69
2022-09-17T14:40:47.421Z,19.73
2022-09-17T14:46:22.766Z,19.75
2022-09-17T14:51:44.491Z,19.74
2022-09-17T14:57:08.913Z,19.75
2022-09-17T15:02:46.425Z,19.74
2022-09-17T15:08:16.170Z,19.74
2022-09-17T15:13:45.690Z,19.71
2022-09-17T15:19:14.350Z,19.69
2022-09-17T15:24:59.152Z,19.69
2022-09-17T15:30:23.384Z,19.66
2022-09-17T15:36:09.430Z,19.68
2022-09-17T15:41:36.249Z,19.66
2022-09-17T15:47:38.005Z,19.66
2022-09-17T15:53:08.790Z,19.68
2022-09-17T15:58:33.395Z,19.65
2022-09-17T16:04:23.964Z,19.67
2022-09-17T16:09:51.047Z,19.65
2022-09-17T16:15:13.580Z,19.65
2022-09-17T16:20:35.221Z,19.65
2022-09-17T16:25:58.073Z,19.63
2022-09-17T16:31:20.659Z,19.63
2022-09-17T16:36:42.474Z,19.63
2022-09-17T16:42:04.390Z,19.63
2022-09-17T16:47:26.013Z,19.60
2022-09-17T16:52:47.739Z,19.61
2022-09-17T16:58:09.533Z,19.58
2022-09-17T17:03:31.173Z,19.57
2022-09-17T17:08:53.073Z,19.56
2022-09-17T17:14:15.107Z,19.56
2022-09-17T17:19:36.958Z,19.55
2022-09-17T17:24:58.714Z,19.55
2022-09-17T17:30:20.424Z,19.54
2022-09-17T17:35:42.129Z,19.53
2022-09-17T17:41:09.586Z,19.53
2022-09-17T17:46:31.340Z,19.53
2022-09-17T17:51:53.632Z,19.52
2022-09-17T17:57:15.309Z,19.52
2022-09-17T18:02:37.147Z,19.51
2022-09-17T18:07:58.877Z,19.51
2022-09-17T18:13:21.228Z,19.50
2022-09-17T18:18:45.356Z,19.49
2022-09-17T18:24:07.208Z,19.48
2022-09-17T18:29:29.236Z,19.46
2022-09-17T18:34:51.740Z,19.44
2022-09-17T18:40:13.895Z,19.45
2022-09-17T18:45:36.081Z,19.45
2022-09-17T18:50:59.678Z,19.46
2022-09-17T18:56:32.773Z,19.44
2022-09-17T19:01:54.464Z,19.44
2022-09-17T19:07:16.241Z,19.44
2022-09-17T19:12:38.206Z,19.43
2022-09-17T19:17:59.953Z,19.44
2022-09-17T19:23:21.750Z,19.43
2022-09-17T19:28:43.620Z,19.44
2022-09-17T19:34:05.270Z,19.44
2022-09-17T19:39:26.935Z,19.43
2022-09-17T19:44:48.764Z,19.43
2022-09-17T19:50:10.437Z,19.42
2022-09-17T19:55:32.125Z,19.42
2022-09-17T20:00:58.499Z,19.43
2022-09-17T20:06:24.196Z,19.42
2022-09-17T20:11:46.012Z,19.40
2022-09-17T20:17:07.682Z,19.41
2022-09-17T20:22:29.344Z,19.40
2022-09-17T20:27:51.110Z,19.40
2022-09-17T20:33:13.222Z,19.40
2022-09-17T20:44:18.016Z,19.38
2022-09-17T20:49:39.668Z,19.38
2022-09-17T20:55:01.348Z,19.37
2022-09-17T21:00:26.525Z,19.37
2022-09-17T21:05:48.652Z,19.36
2022-09-17T21:11:10.452Z,19.36
2022-09-17T21:16:32.249Z,19.36
2022-09-17T21:21:54.762Z,19.35
2022-09-17T21:27:16.445Z,19.35
2022-09-17T21:32:38.404Z,19.34
2022-09-17T21:38:00.196Z,19.34
2022-09-17T21:43:21.995Z,19.33
2022-09-17T21:48:51.784Z,19.33
2022-09-17T21:54:16.983Z,19.33
2022-09-17T21:59:38.793Z,19.32
2022-09-17T22:05:00.425Z,19.32
2022-09-17T22:10:22.061Z,19.31
2022-09-17T22:15:43.758Z,19.31
2022-09-17T22:21:16.723Z,19.32
2022-09-17T22:26:43.495Z,19.30
2022-09-17T22:32:05.317Z,19.30
2022-09-17T22:37:28.903Z,19.29
2022-09-17T22:42:50.557Z,19.29
2022-09-17T22:48:12.217Z,19.28
2022-09-17T22:53:34.797Z,19.29
2022-09-17T22:58:57.543Z,19.28
2022-09-17T23:04:19.199Z,19.28
2022-09-17T23:09:40.817Z,19.28
2022-09-17T23:15:02.552Z,19.27
2022-09-17T23:20:24.195Z,19.27
2022-09-17T23:25:45.805Z,19.27
2022-09-17T23:31:22.309Z,19.28
2022-09-17T23:36:44.164Z,19.26
2022-09-17T23:42:05.920Z,19.24
2022-09-17T23:47:27.741Z,19.24
2022-09-17T23:52:49.394Z,19.24
2022-09-17T23:58:11.058Z,19.23
